createdAt,value
2022-11-20T00:01:11.548Z,6.00
2022-11-20T00:03:24.568Z,6.10
2022-11-20T00:05:39.007Z,6.40
2022-11-20T00:07:51.712Z,5.10
2022-11-20T00:10:04.205Z,5.80
2022-11-20T00:12:18.196Z,5.90
2022-11-20T00:14:30.804Z,6.00
2022-11-20T00:16:43.411Z,5.30
2022-11-20T00:18:56.896Z,6.00
2022-11-20T00:21:10.961Z,6.40
2022-11-20T00:23:23.790Z,6.10
2022-11-20T00:25:37.726Z,5.90
2022-11-20T00:27:50.398Z,5.60
2022-11-20T00:30:02.974Z,5.10
2022-11-20T00:32:15.714Z,5.30
2022-11-20T00:34:28.766Z,5.80
2022-11-20T00:36:41.183Z,5.60
2022-11-20T00:38:55.422Z,6.20
2022-11-20T00:41:09.743Z,5.60
2022-11-20T00:43:22.489Z,5.80
2022-11-20T00:45:34.958Z,7.00
2022-11-20T00:47:47.677Z,6.60
2022-11-20T00:50:00.722Z,6.50
2022-11-20T00:52:13.719Z,6.70
2022-11-20T00:54:26.661Z,6.30
2022-11-20T00:56:39.259Z,5.70
2022-11-20T00:58:52.784Z,5.80
2022-11-20T01:01:09.933Z,5.70
2022-11-20T01:03:26.855Z,6.20
2022-11-20T01:05:43.311Z,6.70
2022-11-20T01:07:55.858Z,5.70
2022-11-20T01:10:08.634Z,5.80
2022-11-20T01:12:21.206Z,5.50
2022-11-20T01:14:33.603Z,6.20
2022-11-20T01:16:47.640Z,6.30
2022-11-20T01:19:01.930Z,6.60
2022-11-20T01:21:16.176Z,5.80
2022-11-20T01:23:29.049Z,5.90
2022-11-20T01:25:42.025Z,6.10
2022-11-20T01:27:55.864Z,4.70
2022-11-20T01:30:09.176Z,6.80
2022-11-20T01:32:21.695Z,5.70
2022-11-20T01:34:35.016Z,5.80
2022-11-20T01:36:48.927Z,6.10
2022-11-20T01:39:02.857Z,5.80
2022-11-20T01:41:37.494Z,5.70
2022-11-20T01:43:50.152Z,6.50
2022-11-20T01:46:08.506Z,6.90
2022-11-20T01:48:22.106Z,6.50
2022-11-20T01:50:36.137Z,6.60
2022-11-20T01:52:54.443Z,6.60
2022-11-20T01:55:11.153Z,5.90
2022-11-20T01:57:26.098Z,6.60
2022-11-20T01:59:39.978Z,7.30
2022-11-20T02:01:52.920Z,6.50
2022-11-20T02:04:06.833Z,5.20
2022-11-20T02:06:23.331Z,5.20
2022-11-20T02:08:36.684Z,5.30
2022-11-20T02:10:50.059Z,6.20
2022-11-20T02:13:20.037Z,4.90
2022-11-20T02:15:32.950Z,7.10
2022-11-20T02:17:45.658Z,5.90
2022-11-20T02:19:58.595Z,6.40
2022-11-20T02:22:16.699Z,6.10
2022-11-20T02:24:29.758Z,4.90
2022-11-20T02:26:50.924Z,5.60
2022-11-20T02:29:04.602Z,6.20
2022-11-20T02:31:17.322Z,6.10
2022-11-20T02:33:31.469Z,6.50
2022-11-20T02:35:53.845Z,6.70
2022-11-20T02:38:08.576Z,7.00
2022-11-20T02:40:21.502Z,5.30
2022-11-20T02:42:33.940Z,6.80
2022-11-20T02:44:46.705Z,5.50
2022-11-20T02:47:01.168Z,6.10
2022-11-20T02:49:13.814Z,5.50
2022-11-20T02:51:27.225Z,6.30
2022-11-20T02:53:39.887Z,5.70
2022-11-20T02:55:53.046Z,7.00
2022-11-20T02:58:05.490Z,6.30
2022-11-20T03:00:21.188Z,6.40
2022-11-20T03:02:36.511Z,5.50
2022-11-20T03:04:49.171Z,6.30
2022-11-20T03:07:01.782Z,6.00
2022-11-20T03:09:14.616Z,5.90
2022-11-20T03:11:28.040Z,5.90
2022-11-20T03:13:41.353Z,5.40
2022-11-20T03:15:54.569Z,5.80
2022-11-20T03:18:06.945Z,5.40
2022-11-20T03:20:20.061Z,6.70
2022-11-20T03:22:33.816Z,6.30
2022-11-20T03:24:46.193Z,6.10
2022-11-20T03:26:59.185Z,5.10
2022-11-20T03:29:11.804Z,6.30
2022-11-20T03:31:26.496Z,7.30
2022-11-20T03:33:38.989Z,6.20
2022-11-20T03:35:52.408Z,4.90
2022-11-20T03:38:04.919Z,6.80
2022-11-20T03:40:18.555Z,6.10
2022-11-20T03:42:50.595Z,6.00
2022-11-20T03:45:03.367Z,6.10
2022-11-20T03:47:15.728Z,5.60
2022-11-20T03:49:28.446Z,7.00
2022-11-20T03:51:41.339Z,6.50
2022-11-20T03:53:55.511Z,6.70
2022-11-20T03:56:08.587Z,5.90
2022-11-20T03:58:21.609Z,4.20
2022-11-20T04:00:34.199Z,6.20
2022-11-20T04:02:47.087Z,5.90
2022-11-20T04:05:00.103Z,5.40
2022-11-20T04:07:12.912Z,5.90
2022-11-20T04:09:25.775Z,6.40
2022-11-20T04:11:40.792Z,7.00
2022-11-20T04:13:57.028Z,7.00
2022-11-20T04:16:10.088Z,4.70
2022-11-20T04:18:23.084Z,6.70
2022-11-20T04:20:36.721Z,7.20
2022-11-20T04:22:49.367Z,6.00
2022-11-20T04:25:02.177Z,6.30
2022-11-20T04:27:14.782Z,6.10
2022-11-20T04:29:27.549Z,7.20
2022-11-20T04:31:40.594Z,7.70
2022-11-20T04:33:54.427Z,6.70
2022-11-20T04:36:10.342Z,7.00
2022-11-20T04:38:23.468Z,6.60
2022-11-20T04:40:36.942Z,5.50
2022-11-20T04:42:49.617Z,7.10
2022-11-20T04:45:02.806Z,6.10
2022-11-20T04:47:16.557Z,6.80
2022-11-20T04:49:29.171Z,7.00
2022-11-20T04:51:41.918Z,6.60
2022-11-20T04:53:54.652Z,7.00
2022-11-20T04:56:13.020Z,6.60
2022-11-20T04:58:26.543Z,7.10
2022-11-20T05:00:39.557Z,7.00
2022-11-20T05:02:52.443Z,6.50
2022-11-20T05:05:05.359Z,7.40
2022-11-20T05:07:18.053Z,6.10
2022-11-20T05:09:31.475Z,6.00
2022-11-20T05:11:45.509Z,7.30
2022-11-20T05:14:02.780Z,6.20
2022-11-20T05:16:16.994Z,6.90
2022-11-20T05:18:30.000Z,6.40
2022-11-20T05:20:42.826Z,6.00
2022-11-20T05:22:55.985Z,6.50
2022-11-20T05:25:09.168Z,5.80
2022-11-20T05:27:21.903Z,6.30
2022-11-20T05:29:34.615Z,6.50
2022-11-20T05:31:48.198Z,6.70
2022-11-20T05:34:02.482Z,7.60
2022-11-20T05:36:16.711Z,6.10
2022-11-20T05:38:29.616Z,6.50
2022-11-20T05:40:42.638Z,5.60
2022-11-20T05:42:55.053Z,6.10
2022-11-20T05:45:09.055Z,6.10
2022-11-20T05:47:22.430Z,6.90
2022-11-20T05:49:35.142Z,6.80
2022-11-20T05:51:48.211Z,7.20
2022-11-20T05:54:02.238Z,5.30
2022-11-20T05:56:17.454Z,7.40
2022-11-20T05:58:30.176Z,5.60
2022-11-20T06:00:42.929Z,6.40
2022-11-20T06:02:56.001Z,5.80
2022-11-20T06:05:09.620Z,6.60
2022-11-20T06:07:23.068Z,7.00
2022-11-20T06:09:35.997Z,7.20
2022-11-20T06:11:49.599Z,6.10
2022-11-20T06:14:02.587Z,6.50
2022-11-20T06:16:17.150Z,5.40
2022-11-20T06:18:30.452Z,6.20
2022-11-20T06:20:42.982Z,5.80
2022-11-20T06:22:55.819Z,6.20
2022-11-20T06:25:08.400Z,7.00
2022-11-20T06:27:20.953Z,6.50
2022-11-20T06:29:34.257Z,6.20
2022-11-20T06:31:47.187Z,5.80
2022-11-20T06:34:00.804Z,5.60
2022-11-20T06:36:14.507Z,7.00
2022-11-20T06:38:27.885Z,6.40
2022-11-20T06:40:40.275Z,6.90
2022-11-20T06:42:52.713Z,6.50
2022-11-20T06:45:05.808Z,6.40
2022-11-20T06:47:18.504Z,6.10
2022-11-20T06:49:32.760Z,5.10
2022-11-20T06:51:45.469Z,5.50
2022-11-20T06:53:58.109Z,6.60
2022-11-20T06:56:12.162Z,5.90
2022-11-20T06:58:24.999Z,7.00
2022-11-20T07:00:37.755Z,8.00
2022-11-20T07:02:50.400Z,6.50
2022-11-20T07:05:03.400Z,7.10
2022-11-20T07:07:16.288Z,5.50
2022-11-20T07:09:28.823Z,5.70
2022-11-20T07:11:41.398Z,7.30
2022-11-20T07:13:54.207Z,6.00
2022-11-20T07:16:09.946Z,6.70
2022-11-20T07:18:22.629Z,5.80
2022-11-20T07:20:35.415Z,7.10
2022-11-20T07:22:48.632Z,7.30
2022-11-20T07:25:01.897Z,6.80
2022-11-20T07:27:14.926Z,6.60
2022-11-20T07:29:28.025Z,7.40
2022-11-20T07:31:40.812Z,5.90
2022-11-20T07:33:53.321Z,7.00
2022-11-20T07:36:07.943Z,6.50
2022-11-20T07:38:21.095Z,6.30
2022-11-20T07:40:33.940Z,6.40
2022-11-20T07:42:54.069Z,6.10
2022-11-20T07:45:06.970Z,4.50
2022-11-20T07:47:19.443Z,6.10
2022-11-20T07:49:32.335Z,7.10
2022-11-20T07:51:47.896Z,6.30
2022-11-20T07:54:03.044Z,6.70
2022-11-20T07:56:16.219Z,6.30
2022-11-20T07:58:29.225Z,7.00
2022-11-20T08:00:42.261Z,6.90
2022-11-20T08:02:55.051Z,5.90
2022-11-20T08:05:08.128Z,6.00
2022-11-20T08:07:21.069Z,6.00
2022-11-20T08:09:34.677Z,5.90
2022-11-20T08:12:04.293Z,7.00
2022-11-20T08:14:16.704Z,7.40
2022-11-20T08:16:30.092Z,6.50
2022-11-20T08:18:43.258Z,7.00
2022-11-20T08:20:56.190Z,6.50
2022-11-20T08:23:10.695Z,6.80
2022-11-20T08:25:23.281Z,5.60
2022-11-20T08:27:38.778Z,5.80
2022-11-20T08:29:52.082Z,6.20
2022-11-20T08:32:04.471Z,6.70
2022-11-20T08:34:23.964Z,6.00
2022-11-20T08:36:39.757Z,6.90
2022-11-20T08:38:56.400Z,6.30
2022-11-20T08:41:30.526Z,6.40
2022-11-20T08:43:43.601Z,6.50
2022-11-20T08:45:56.098Z,6.50
2022-11-20T08:48:10.150Z,8.00
2022-11-20T08:50:23.997Z,6.60
2022-11-20T08:52:39.856Z,7.20
2022-11-20T08:54:52.885Z,6.10
2022-11-20T08:57:05.698Z,4.60
2022-11-20T08:59:36.711Z,5.90
2022-11-20T09:01:51.942Z,5.50
2022-11-20T09:04:06.681Z,6.10
2022-11-20T09:06:19.068Z,6.60
2022-11-20T09:08:33.323Z,6.00
2022-11-20T09:10:46.029Z,6.40
2022-11-20T09:12:58.897Z,6.30
2022-11-20T09:15:13.167Z,6.10
2022-11-20T09:17:25.747Z,5.40
2022-11-20T09:19:38.450Z,6.00
2022-11-20T09:21:53.576Z,6.20
2022-11-20T09:24:09.414Z,6.10
2022-11-20T09:26:21.828Z,7.00
2022-11-20T09:28:34.752Z,5.90
2022-11-20T09:30:47.557Z,5.80
2022-11-20T09:33:00.632Z,7.00
2022-11-20T09:35:14.843Z,6.30
2022-11-20T09:37:28.120Z,6.00
2022-11-20T09:39:40.943Z,6.20
2022-11-20T09:42:12.024Z,5.40
2022-11-20T09:44:39.972Z,5.90
2022-11-20T09:46:57.648Z,5.20
2022-11-20T09:49:29.139Z,6.20
2022-11-20T09:51:55.616Z,5.70
2022-11-20T09:54:19.206Z,6.50
2022-11-20T09:56:33.499Z,4.30
2022-11-20T09:58:48.845Z,7.40
2022-11-20T10:01:08.393Z,6.10
2022-11-20T10:03:26.483Z,6.30
2022-11-20T10:05:45.106Z,6.80
2022-11-20T10:08:04.619Z,5.50
2022-11-20T10:10:25.986Z,5.90
2022-11-20T10:13:00.576Z,5.30
2022-11-20T10:15:30.937Z,6.20
2022-11-20T10:18:03.348Z,7.30
2022-11-20T10:23:03.767Z,5.90
2022-11-20T10:25:22.136Z,6.40
2022-11-20T10:28:10.776Z,6.20
2022-11-20T10:30:27.310Z,7.30
2022-11-20T10:32:43.633Z,6.60
2022-11-20T10:35:01.730Z,5.80
2022-11-20T10:37:20.334Z,7.60
2022-11-20T10:39:43.452Z,6.90
2022-11-20T10:41:57.691Z,6.50
2022-11-20T10:44:16.812Z,6.90
2022-11-20T10:46:36.865Z,6.50
2022-11-20T10:48:51.406Z,6.60
2022-11-20T10:51:22.362Z,6.90
2022-11-20T10:53:52.635Z,6.90
2022-11-20T10:56:11.712Z,6.50
2022-11-20T10:58:34.151Z,7.50
2022-11-20T11:00:47.229Z,6.30
2022-11-20T11:03:04.434Z,6.50
2022-11-20T11:05:32.071Z,6.90
2022-11-20T11:07:46.513Z,7.00
2022-11-20T11:10:00.832Z,6.80
2022-11-20T11:12:16.274Z,6.20
2022-11-20T11:14:29.007Z,6.60
2022-11-20T11:16:53.105Z,6.30
2022-11-20T11:19:16.607Z,5.80
2022-11-20T11:21:33.393Z,5.90
2022-11-20T11:23:46.911Z,6.50
2022-11-20T11:26:07.272Z,7.10
2022-11-20T11:28:29.891Z,7.30
2022-11-20T11:30:51.500Z,7.20
2022-11-20T11:33:22.437Z,6.80
2022-11-20T11:35:35.306Z,6.60
2022-11-20T11:37:50.021Z,6.60
2022-11-20T11:42:36.246Z,8.10
2022-11-20T11:45:09.933Z,7.70
2022-11-20T11:47:28.740Z,7.00
2022-11-20T11:49:42.388Z,7.80
2022-11-20T11:52:06.297Z,7.20
2022-11-20T11:54:26.137Z,7.30
2022-11-20T11:56:40.665Z,6.80
2022-11-20T11:58:57.249Z,8.00
2022-11-20T12:01:17.037Z,8.20
2022-11-20T12:03:38.527Z,7.50
2022-11-20T12:05:55.131Z,9.20
2022-11-20T12:08:14.434Z,10.10
2022-11-20T12:10:38.750Z,10.60
2022-11-20T12:12:56.809Z,11.90
2022-11-20T12:15:14.994Z,10.50
2022-11-20T12:17:27.814Z,10.80
2022-11-20T12:19:41.303Z,11.10
2022-11-20T12:22:05.019Z,9.40
2022-11-20T12:24:44.740Z,11.00
2022-11-20T12:27:16.236Z,11.80
2022-11-20T12:29:39.517Z,9.60
2022-11-20T12:32:10.550Z,11.20
2022-11-20T12:34:37.044Z,11.00
2022-11-20T12:37:01.067Z,10.30
2022-11-20T12:39:45.268Z,10.90
2022-11-20T12:42:38.209Z,8.40
2022-11-20T12:47:37.568Z,9.50
2022-11-20T12:49:59.664Z,9.20
2022-11-20T12:52:33.578Z,9.40
2022-11-20T12:55:12.401Z,9.20
2022-11-20T12:57:33.095Z,8.30
2022-11-20T13:00:04.488Z,9.40
2022-11-20T13:02:29.872Z,8.60
2022-11-20T13:04:57.463Z,9.60
2022-11-20T13:07:13.052Z,8.00
2022-11-20T13:09:27.992Z,9.00
2022-11-20T13:11:47.339Z,9.60
2022-11-20T13:14:24.325Z,8.80
2022-11-20T13:16:42.838Z,9.50
2022-11-20T13:18:56.158Z,9.50
2022-11-20T13:21:17.215Z,8.80
2022-11-20T13:23:33.821Z,9.70
2022-11-20T13:25:47.127Z,9.10
2022-11-20T13:28:00.514Z,6.80
2022-11-20T13:30:24.070Z,8.60
2022-11-20T13:32:36.824Z,8.90
2022-11-20T13:34:59.063Z,9.30
2022-11-20T13:37:24.445Z,9.00
2022-11-20T13:39:38.310Z,8.80
2022-11-20T13:42:01.375Z,9.00
2022-11-20T13:44:19.577Z,8.70
2022-11-20T13:46:44.971Z,9.20
2022-11-20T13:48:59.447Z,9.50
2022-11-20T13:51:22.531Z,9.50
2022-11-20T13:53:56.585Z,9.60
2022-11-20T13:56:16.267Z,9.40
2022-11-20T13:58:40.280Z,7.70
2022-11-20T14:00:58.696Z,9.70
2022-11-20T14:03:28.385Z,8.80
2022-11-20T14:06:00.937Z,8.90
2022-11-20T14:08:24.666Z,10.00
2022-11-20T14:10:37.342Z,9.30
2022-11-20T14:12:50.075Z,9.90
2022-11-20T14:15:03.444Z,8.80
2022-11-20T14:17:24.688Z,8.70
2022-11-20T14:19:39.171Z,9.30
2022-11-20T14:21:53.191Z,8.80
2022-11-20T14:24:18.005Z,8.50
2022-11-20T14:26:31.238Z,9.20
2022-11-20T14:28:44.476Z,9.10
2022-11-20T14:30:57.757Z,8.50
2022-11-20T14:33:11.100Z,10.50
2022-11-20T14:35:29.172Z,8.20
2022-11-20T14:37:45.154Z,9.00
2022-11-20T14:40:00.917Z,10.00
2022-11-20T14:42:22.898Z,9.60
2022-11-20T14:44:39.129Z,9.50
2022-11-20T14:46:52.506Z,10.60
2022-11-20T14:49:08.306Z,9.70
2022-11-20T14:51:31.378Z,10.20
2022-11-20T14:53:44.211Z,10.30
2022-11-20T14:56:03.275Z,10.70
2022-11-20T14:58:28.725Z,10.70
2022-11-20T15:00:41.718Z,8.50
2022-11-20T15:02:55.976Z,10.50
2022-11-20T15:05:10.033Z,10.40
2022-11-20T15:07:33.554Z,11.70
2022-11-20T15:09:46.270Z,9.50
2022-11-20T15:12:04.223Z,10.30
2022-11-20T15:14:19.015Z,9.80
2022-11-20T15:16:35.163Z,9.60
2022-11-20T15:18:48.273Z,10.00
2022-11-20T15:21:02.849Z,11.20
2022-11-20T15:23:20.403Z,10.50
2022-11-20T15:25:33.252Z,19.10
2022-11-20T15:27:46.052Z,17.00
2022-11-20T15:29:58.868Z,15.20
2022-11-20T15:32:13.644Z,14.40
2022-11-20T15:34:26.642Z,10.30
2022-11-20T15:36:39.501Z,11.10
2022-11-20T15:38:52.628Z,11.60
2022-11-20T15:41:05.353Z,11.90
2022-11-20T15:43:18.322Z,10.20
2022-11-20T15:45:32.368Z,11.60
2022-11-20T15:47:45.008Z,11.00
2022-11-20T15:49:57.516Z,11.10
2022-11-20T15:52:10.015Z,12.30
2022-11-20T15:54:24.926Z,11.70
2022-11-20T15:56:37.874Z,12.10
2022-11-20T15:58:50.914Z,11.80
2022-11-20T16:01:03.694Z,11.70
2022-11-20T16:03:18.609Z,13.40
2022-11-20T16:05:34.851Z,12.30
2022-11-20T16:07:47.814Z,11.10
2022-11-20T16:10:00.520Z,11.90
2022-11-20T16:12:37.103Z,11.90
2022-11-20T16:15:15.534Z,11.00
2022-11-20T16:17:44.759Z,11.30
2022-11-20T16:19:57.778Z,11.60
2022-11-20T16:22:10.704Z,10.60
2022-11-20T16:24:24.445Z,10.70
2022-11-20T16:26:37.898Z,10.90
2022-11-20T16:28:50.772Z,9.50
2022-11-20T16:31:11.578Z,10.50
2022-11-20T16:33:24.684Z,10.50
2022-11-20T16:35:37.897Z,9.40
2022-11-20T16:37:50.694Z,9.80
2022-11-20T16:40:03.323Z,9.40
2022-11-20T16:42:16.004Z,10.20
2022-11-20T16:44:28.835Z,9.00
2022-11-20T16:46:41.759Z,9.00
2022-11-20T16:48:59.651Z,9.60
2022-11-20T16:51:15.699Z,10.00
2022-11-20T16:53:28.950Z,9.20
2022-11-20T16:55:41.714Z,9.30
2022-11-20T16:57:54.185Z,9.80
2022-11-20T17:00:07.344Z,8.50
2022-11-20T17:02:20.142Z,9.60
2022-11-20T17:04:33.532Z,9.00
2022-11-20T17:06:48.893Z,8.80
2022-11-20T17:09:02.163Z,9.80
2022-11-20T17:11:16.743Z,9.40
2022-11-20T17:13:29.449Z,8.50
2022-11-20T17:15:42.365Z,8.80
2022-11-20T17:17:55.319Z,9.80
2022-11-20T17:20:08.479Z,8.80
2022-11-20T17:22:21.246Z,9.60
2022-11-20T17:24:34.448Z,9.00
2022-11-20T17:26:48.251Z,8.10
2022-11-20T17:29:02.799Z,9.40
2022-11-20T17:31:17.527Z,9.00
2022-11-20T17:33:30.745Z,9.20
2022-11-20T17:35:43.895Z,9.10
2022-11-20T17:37:57.067Z,9.40
2022-11-20T17:40:11.266Z,10.20
2022-11-20T17:42:30.656Z,8.70
2022-11-20T17:44:43.783Z,8.80
2022-11-20T17:46:56.835Z,9.10
2022-11-20T17:49:09.889Z,9.70
2022-11-20T17:51:24.583Z,9.20
2022-11-20T17:53:39.879Z,8.40
2022-11-20T17:56:17.844Z,9.30
2022-11-20T17:58:33.218Z,9.40
2022-11-20T18:00:45.962Z,10.00
2022-11-20T18:02:59.087Z,9.20
2022-11-20T18:05:13.215Z,9.50
2022-11-20T18:07:26.197Z,9.20
2022-11-20T18:09:39.239Z,8.60
2022-11-20T18:11:52.386Z,9.10
2022-11-20T18:14:23.894Z,8.80
2022-11-20T18:16:38.684Z,8.90
2022-11-20T18:18:51.124Z,9.50
2022-11-20T18:21:03.894Z,8.60
2022-11-20T18:23:16.766Z,9.00
2022-11-20T18:25:30.040Z,9.10
2022-11-20T18:27:42.401Z,9.00
2022-11-20T18:29:55.187Z,9.10
2022-11-20T18:32:07.940Z,8.80
2022-11-20T18:34:20.556Z,9.60
2022-11-20T18:36:35.173Z,9.00
2022-11-20T18:38:48.559Z,8.90
2022-11-20T18:41:03.888Z,9.30
2022-11-20T18:43:36.494Z,9.20
2022-11-20T18:45:49.210Z,9.60
2022-11-20T18:48:02.089Z,9.70
2022-11-20T18:50:15.519Z,8.80
2022-11-20T18:52:30.148Z,8.70
2022-11-20T18:54:43.044Z,7.90
2022-11-20T18:56:56.084Z,8.00
2022-11-20T18:59:10.476Z,9.70
2022-11-20T19:01:23.379Z,9.30
2022-11-20T19:03:37.887Z,8.40
2022-11-20T19:05:50.597Z,8.60
2022-11-20T19:08:03.449Z,8.30
2022-11-20T19:10:16.520Z,9.30
2022-11-20T19:12:29.385Z,8.50
2022-11-20T19:14:42.484Z,7.80
2022-11-20T19:16:55.469Z,9.50
2022-11-20T19:19:09.423Z,9.00
2022-11-20T19:21:23.969Z,9.70
2022-11-20T19:23:36.663Z,9.70
2022-11-20T19:25:49.504Z,8.80
2022-11-20T19:28:02.872Z,9.40
2022-11-20T19:30:18.384Z,9.20
2022-11-20T19:32:31.524Z,9.00
2022-11-20T19:34:44.825Z,8.90
2022-11-20T19:36:57.872Z,8.80
2022-11-20T19:39:11.759Z,9.10
2022-11-20T19:41:29.890Z,9.30
2022-11-20T19:43:42.634Z,9.00
2022-11-20T19:45:55.547Z,9.30
2022-11-20T19:48:09.001Z,8.60
2022-11-20T19:50:22.001Z,8.50
2022-11-20T19:52:34.741Z,7.60
2022-11-20T19:54:48.412Z,9.20
2022-11-20T19:57:02.312Z,9.10
2022-11-20T19:59:15.194Z,8.50
2022-11-20T20:01:29.806Z,8.90
2022-11-20T20:03:43.720Z,9.50
2022-11-20T20:05:57.099Z,9.20
2022-11-20T20:08:12.148Z,8.40
2022-11-20T20:10:28.209Z,7.60
2022-11-20T20:12:40.891Z,9.40
2022-11-20T20:14:53.820Z,8.70
2022-11-20T20:17:06.838Z,9.30
2022-11-20T20:19:21.964Z,8.40
2022-11-20T20:21:37.363Z,8.20
2022-11-20T20:23:53.563Z,8.50
2022-11-20T20:26:08.034Z,7.80
2022-11-20T20:28:21.479Z,7.40
2022-11-20T20:30:34.769Z,8.20
2022-11-20T20:32:50.715Z,8.20
2022-11-20T20:35:06.170Z,7.70
2022-11-20T20:37:18.951Z,9.40
2022-11-20T20:39:32.436Z,8.40
2022-11-20T20:41:45.008Z,7.50
2022-11-20T20:44:14.746Z,8.60
2022-11-20T20:46:27.699Z,8.00
2022-11-20T20:48:41.275Z,8.10
2022-11-20T20:51:02.146Z,8.70
2022-11-20T20:53:14.729Z,8.60
2022-11-20T20:55:27.469Z,7.90
2022-11-20T20:57:40.896Z,9.00
2022-11-20T20:59:54.451Z,8.40
2022-11-20T21:02:07.546Z,8.80
2022-11-20T21:04:20.390Z,7.90
2022-11-20T21:06:33.295Z,9.30
2022-11-20T21:08:46.138Z,8.10
2022-11-20T21:11:03.506Z,9.40
2022-11-20T21:13:16.212Z,9.00
2022-11-20T21:15:29.014Z,9.40
2022-11-20T21:17:45.243Z,8.50
2022-11-20T21:19:58.088Z,6.50
2022-11-20T21:22:11.054Z,8.50
2022-11-20T21:24:24.013Z,10.00
2022-11-20T21:26:37.479Z,9.20
2022-11-20T21:28:50.890Z,10.30
2022-11-20T21:31:11.852Z,9.60
2022-11-20T21:33:24.759Z,8.20
2022-11-20T21:35:40.703Z,9.80
2022-11-20T21:37:53.450Z,9.30
2022-11-20T21:40:06.246Z,8.20
2022-11-20T21:42:19.870Z,8.90
2022-11-20T21:44:34.602Z,9.10
2022-11-20T21:46:49.089Z,9.50
2022-11-20T21:49:02.425Z,8.90
2022-11-20T21:51:18.439Z,9.50
2022-11-20T21:53:31.508Z,9.10
2022-11-20T21:55:44.365Z,8.60
2022-11-20T21:57:57.138Z,9.00
2022-11-20T22:00:11.988Z,9.30
2022-11-20T22:02:24.547Z,9.90
2022-11-20T22:04:37.169Z,8.60
2022-11-20T22:06:49.909Z,9.00
2022-11-20T22:09:03.234Z,7.00
2022-11-20T22:11:18.439Z,9.50
2022-11-20T22:13:48.509Z,8.50
2022-11-20T22:16:06.614Z,8.10
2022-11-20T22:18:19.410Z,7.70
2022-11-20T22:20:32.653Z,9.20
2022-11-20T22:22:45.412Z,9.60
2022-11-20T22:24:58.732Z,8.90
2022-11-20T22:27:13.441Z,9.20
2022-11-20T22:29:26.957Z,9.10
2022-11-20T22:31:40.181Z,8.10
2022-11-20T22:33:53.174Z,8.50
2022-11-20T22:36:10.871Z,8.20
2022-11-20T22:38:26.588Z,7.80
2022-11-20T22:40:44.877Z,7.50
2022-11-20T22:42:57.650Z,9.50
2022-11-20T22:45:12.779Z,8.30
2022-11-20T22:47:25.536Z,8.70
2022-11-20T22:49:38.224Z,8.80
2022-11-20T22:51:50.924Z,7.20
2022-11-20T22:54:04.883Z,8.20
2022-11-20T22:56:18.499Z,9.30
2022-11-20T22:58:33.750Z,8.80
2022-11-20T23:00:46.479Z,8.60
2022-11-20T23:02:59.374Z,8.90
2022-11-20T23:05:12.798Z,8.60
2022-11-20T23:07:25.866Z,8.90
2022-11-20T23:09:38.850Z,8.50
2022-11-20T23:11:52.878Z,7.50
2022-11-20T23:14:07.768Z,8.40
2022-11-20T23:16:22.324Z,8.60
2022-11-20T23:18:36.030Z,8.80
2022-11-20T23:20:48.541Z,7.60
2022-11-20T23:23:01.452Z,7.90
2022-11-20T23:25:15.301Z,9.50
2022-11-20T23:27:28.474Z,7.60
2022-11-20T23:29:41.623Z,8.00
2022-11-20T23:31:54.959Z,8.90
2022-11-20T23:34:08.216Z,9.20
2022-11-20T23:36:21.054Z,8.20
2022-11-20T23:38:34.356Z,7.70
2022-11-20T23:40:49.470Z,7.30
2022-11-20T23:43:20.334Z,8.10
2022-11-20T23:45:33.571Z,8.50
2022-11-20T23:47:46.292Z,6.00
2022-11-20T23:49:59.032Z,8.60
2022-11-20T23:52:12.619Z,8.60
2022-11-20T23:54:25.420Z,7.60
2022-11-20T23:56:39.089Z,7.30
2022-11-20T23:58:51.659Z,7.50
